LPA727 UUWW-UGTB
Flight info
| Callsign | LPA727 |
|---|---|
| Flight time | 2h 41m |
| Altitude | 37000 |
| Route | K0846F410 EMGAS3A EMGAS T828 NIBIM M54 GUSLI/N0448F398 L125 BT H5 TBS DCT |
| Aircraft | A320/M-SDE3FGHIRWY/LB1 |
Departure
| Time | 2026-04-21 18:48 |
|---|---|
| Airport | Vnukovo International Airport (UUWW) |
Arrival
| Time | 2026-04-21 21:29 |
|---|---|
| Airport | Tbilisi International Airport (UGTB) |
| Time | Latitude | Longitude | Altitude | Speed | Heading |
|---|---|---|---|---|---|
| 2026-04-21 17:21 | 55.60189 | 37.28374 | 677 ft | 0 kts | 355° |
| 2026-04-21 18:33 | 55.60177 | 37.28376 | 679 ft | 2 kts | 349° |
| 2026-04-21 18:34 | 55.60161 | 37.28381 | 676 ft | 2 kts | 345° |
| 2026-04-21 18:34 | 55.60145 | 37.28390 | 677 ft | 2 kts | 336° |
| 2026-04-21 18:34 | 55.60130 | 37.28403 | 677 ft | 2 kts | 320° |
| 2026-04-21 18:34 | 55.60119 | 37.28424 | 678 ft | 2 kts | 295° |
| 2026-04-21 18:35 | 55.60115 | 37.28443 | 675 ft | 2 kts | 272° |
| 2026-04-21 18:35 | 55.60117 | 37.28476 | 677 ft | 1 kts | 237° |
| 2026-04-21 18:35 | 55.60119 | 37.28481 | 677 ft | 0 kts | 231° |
| 2026-04-21 18:37 | 55.60112 | 37.28467 | 674 ft | 5 kts | 231° |
| 2026-04-21 18:37 | 55.60094 | 37.28418 | 679 ft | 6 kts | 244° |
| 2026-04-21 18:37 | 55.60085 | 37.28330 | 679 ft | 7 kts | 263° |
| 2026-04-21 18:38 | 55.60078 | 37.28228 | 680 ft | 11 kts | 264° |
| 2026-04-21 18:38 | 55.60074 | 37.28105 | 680 ft | 9 kts | 272° |
| 2026-04-21 18:38 | 55.60060 | 37.28029 | 678 ft | 6 kts | 209° |
| 2026-04-21 18:38 | 55.60012 | 37.28001 | 680 ft | 8 kts | 199° |
| 2026-04-21 18:39 | 55.59962 | 37.27959 | 680 ft | 9 kts | 228° |
| 2026-04-21 18:39 | 55.59933 | 37.27886 | 680 ft | 7 kts | 205° |
| 2026-04-21 18:39 | 55.59844 | 37.27831 | 679 ft | 21 kts | 199° |
| 2026-04-21 18:39 | 55.59718 | 37.27747 | 679 ft | 16 kts | 213° |
| 2026-04-21 18:40 | 55.59663 | 37.27594 | 679 ft | 19 kts | 246° |
| 2026-04-21 18:40 | 55.59605 | 37.27326 | 671 ft | 25 kts | 248° |
| 2026-04-21 18:40 | 55.59558 | 37.27125 | 667 ft | 28 kts | 248° |
| 2026-04-21 18:40 | 55.59475 | 37.26891 | 667 ft | 16 kts | 226° |
| 2026-04-21 18:41 | 55.59394 | 37.26760 | 668 ft | 16 kts | 222° |
| 2026-04-21 18:41 | 55.59306 | 37.26620 | 669 ft | 19 kts | 220° |
| 2026-04-21 18:41 | 55.59173 | 37.26489 | 669 ft | 23 kts | 203° |
| 2026-04-21 18:41 | 55.59030 | 37.26379 | 662 ft | 17 kts | 203° |
| 2026-04-21 18:42 | 55.58920 | 37.26295 | 652 ft | 13 kts | 203° |
| 2026-04-21 18:42 | 55.58909 | 37.26286 | 652 ft | 0 kts | 203° |
| 2026-04-21 18:44 | 55.58866 | 37.26254 | 654 ft | 12 kts | 205° |
| 2026-04-21 18:44 | 55.58837 | 37.26217 | 652 ft | 0 kts | 229° |
| 2026-04-21 18:45 | 55.58837 | 37.26215 | 652 ft | 1 kts | 230° |
| 2026-04-21 18:45 | 55.58820 | 37.26160 | 652 ft | 5 kts | 247° |
| 2026-04-21 18:46 | 55.58813 | 37.26129 | 652 ft | 0 kts | 248° |
| 2026-04-21 18:46 | 55.58798 | 37.26058 | 652 ft | 16 kts | 249° |
| 2026-04-21 18:46 | 55.58786 | 37.25926 | 652 ft | 8 kts | 290° |
| 2026-04-21 18:46 | 55.58826 | 37.25906 | 652 ft | 5 kts | 15° |
| 2026-04-21 18:47 | 55.58858 | 37.25921 | 652 ft | 0 kts | 23° |
| 2026-04-21 18:47 | 55.58859 | 37.25922 | 652 ft | 1 kts | 23° |
| 2026-04-21 18:48 | 55.59071 | 37.26085 | 669 ft | 73 kts | 23° |
| 2026-04-21 18:48 | 55.59786 | 37.26627 | 686 ft | 146 kts | 23° |
| 2026-04-21 18:48 | 55.60868 | 37.27461 | 983 ft | 180 kts | 22° |
| 2026-04-21 18:48 | 55.62004 | 37.28345 | 1926 ft | 176 kts | 24° |
| 2026-04-21 18:49 | 55.63131 | 37.29215 | 2559 ft | 180 kts | 24° |
| 2026-04-21 18:49 | 55.64323 | 37.30146 | 2988 ft | 194 kts | 27° |
| 2026-04-21 18:49 | 55.65061 | 37.31145 | 3169 ft | 212 kts | 49° |
| 2026-04-21 18:49 | 55.65566 | 37.34718 | 3698 ft | 250 kts | 100° |
| 2026-04-21 18:50 | 55.64662 | 37.37411 | 4477 ft | 267 kts | 136° |
| 2026-04-21 18:50 | 55.63054 | 37.39121 | 5354 ft | 274 kts | 155° |
| 2026-04-21 18:50 | 55.61232 | 37.40243 | 6181 ft | 280 kts | 162° |
| 2026-04-21 18:50 | 55.59348 | 37.41157 | 7060 ft | 282 kts | 163° |
| 2026-04-21 18:51 | 55.57448 | 37.42063 | 7866 ft | 285 kts | 162° |
| 2026-04-21 18:51 | 55.55524 | 37.43044 | 8665 ft | 290 kts | 160° |
| 2026-04-21 18:51 | 55.53586 | 37.44112 | 9464 ft | 294 kts | 159° |
| 2026-04-21 18:51 | 55.51633 | 37.45255 | 10205 ft | 298 kts | 158° |
| 2026-04-21 18:52 | 55.49648 | 37.46464 | 10757 ft | 310 kts | 158° |
| 2026-04-21 18:52 | 55.47547 | 37.47775 | 10981 ft | 332 kts | 158° |
| 2026-04-21 18:52 | 55.45292 | 37.49190 | 11140 ft | 355 kts | 158° |
| 2026-04-21 18:52 | 55.42934 | 37.50659 | 11469 ft | 370 kts | 158° |
| 2026-04-21 18:53 | 55.40484 | 37.52164 | 12094 ft | 375 kts | 158° |
| 2026-04-21 18:53 | 55.37973 | 37.53698 | 12778 ft | 379 kts | 158° |
| 2026-04-21 18:53 | 55.35626 | 37.55656 | 13426 ft | 379 kts | 144° |
| 2026-04-21 18:53 | 55.33473 | 37.58355 | 14058 ft | 382 kts | 141° |
| 2026-04-21 18:54 | 55.31317 | 37.61116 | 14643 ft | 385 kts | 141° |
| 2026-04-21 18:54 | 55.29119 | 37.63934 | 14865 ft | 400 kts | 141° |
| 2026-04-21 18:54 | 55.26825 | 37.66871 | 14998 ft | 415 kts | 141° |
| 2026-04-21 18:54 | 55.24458 | 37.69902 | 15154 ft | 428 kts | 141° |
| 2026-04-21 18:55 | 55.22851 | 37.71956 | 15382 ft | 432 kts | 142° |
| 2026-04-21 18:55 | 55.19579 | 37.76123 | 15930 ft | 437 kts | 142° |
| 2026-04-21 18:55 | 55.17124 | 37.79277 | 16338 ft | 440 kts | 139° |
| 2026-04-21 18:55 | 55.14919 | 37.82980 | 16737 ft | 441 kts | 131° |
| 2026-04-21 18:56 | 55.12783 | 37.86861 | 17132 ft | 444 kts | 132° |
| 2026-04-21 18:56 | 55.10634 | 37.90755 | 17524 ft | 447 kts | 132° |
| 2026-04-21 18:56 | 55.08470 | 37.94675 | 17899 ft | 450 kts | 132° |
| 2026-04-21 18:56 | 55.06292 | 37.98624 | 18255 ft | 453 kts | 132° |
| 2026-04-21 18:57 | 55.04100 | 38.02604 | 18575 ft | 455 kts | 132° |
| 2026-04-21 18:57 | 55.01899 | 38.06582 | 18910 ft | 457 kts | 132° |
| 2026-04-21 18:57 | 54.99716 | 38.10505 | 19288 ft | 457 kts | 133° |
| 2026-04-21 18:57 | 54.97536 | 38.14400 | 20408 ft | 437 kts | 133° |
| 2026-04-21 18:58 | 54.95460 | 38.18099 | 21682 ft | 418 kts | 133° |
| 2026-04-21 18:58 | 54.93473 | 38.21629 | 23049 ft | 398 kts | 133° |
| 2026-04-21 18:58 | 54.91560 | 38.25030 | 23953 ft | 391 kts | 133° |
| 2026-04-21 18:58 | 54.89658 | 38.28412 | 24511 ft | 391 kts | 133° |
| 2026-04-21 18:59 | 54.87757 | 38.31791 | 24979 ft | 392 kts | 133° |
| 2026-04-21 18:59 | 54.85871 | 38.35231 | 25423 ft | 394 kts | 129° |
| 2026-04-21 18:59 | 54.84271 | 38.39080 | 25859 ft | 394 kts | 119° |
| 2026-04-21 18:59 | 54.82928 | 38.43242 | 26281 ft | 396 kts | 117° |
| 2026-04-21 19:00 | 54.82043 | 38.45999 | 26565 ft | 397 kts | 117° |
| 2026-04-21 19:00 | 54.80693 | 38.50183 | 26974 ft | 399 kts | 117° |
| 2026-04-21 19:00 | 54.79328 | 38.54395 | 27372 ft | 401 kts | 117° |
| 2026-04-21 19:00 | 54.77932 | 38.58594 | 27774 ft | 404 kts | 122° |
| 2026-04-21 19:01 | 54.76209 | 38.62456 | 28144 ft | 407 kts | 131° |
| 2026-04-21 19:01 | 54.74107 | 38.65799 | 28380 ft | 414 kts | 141° |
| 2026-04-21 19:01 | 54.71672 | 38.68548 | 28531 ft | 422 kts | 148° |
| 2026-04-21 19:01 | 54.69129 | 38.71169 | 28680 ft | 429 kts | 148° |
| 2026-04-21 19:02 | 54.66551 | 38.73842 | 28825 ft | 435 kts | 148° |
| 2026-04-21 19:02 | 54.63945 | 38.76555 | 29046 ft | 438 kts | 148° |
| 2026-04-21 19:02 | 54.61332 | 38.79275 | 29338 ft | 441 kts | 147° |
| 2026-04-21 19:02 | 54.58700 | 38.82016 | 29637 ft | 442 kts | 147° |
| 2026-04-21 19:03 | 54.56062 | 38.84760 | 29927 ft | 444 kts | 148° |
| 2026-04-21 19:03 | 54.53413 | 38.87511 | 30174 ft | 445 kts | 148° |
| 2026-04-21 19:03 | 54.50748 | 38.90271 | 30398 ft | 447 kts | 148° |
| 2026-04-21 19:03 | 54.48074 | 38.93028 | 30606 ft | 449 kts | 148° |
| 2026-04-21 19:04 | 54.45391 | 38.95788 | 30808 ft | 450 kts | 148° |
| 2026-04-21 19:04 | 54.42758 | 38.98701 | 31005 ft | 451 kts | 142° |
| 2026-04-21 19:04 | 54.40409 | 39.02244 | 31291 ft | 449 kts | 133° |
| 2026-04-21 19:04 | 54.38423 | 39.06372 | 31556 ft | 448 kts | 123° |
| 2026-04-21 19:05 | 54.36848 | 39.10968 | 31809 ft | 447 kts | 114° |
| 2026-04-21 19:05 | 54.35658 | 39.15816 | 32050 ft | 447 kts | 111° |
| 2026-04-21 19:05 | 54.34486 | 39.20758 | 32304 ft | 448 kts | 111° |
| 2026-04-21 19:05 | 54.33285 | 39.25776 | 32551 ft | 449 kts | 111° |
| 2026-04-21 19:06 | 54.32094 | 39.30702 | 32798 ft | 449 kts | 112° |
| 2026-04-21 19:06 | 54.30903 | 39.35584 | 33044 ft | 449 kts | 112° |
| 2026-04-21 19:06 | 54.29676 | 39.40584 | 33296 ft | 450 kts | 112° |
| 2026-04-21 19:06 | 54.28464 | 39.45529 | 33556 ft | 450 kts | 112° |
| 2026-04-21 19:07 | 54.27258 | 39.50463 | 33808 ft | 450 kts | 112° |
| 2026-04-21 19:07 | 54.26051 | 39.55407 | 34041 ft | 451 kts | 112° |
| 2026-04-21 19:07 | 54.24841 | 39.60348 | 34258 ft | 451 kts | 112° |
| 2026-04-21 19:07 | 54.23641 | 39.65240 | 34467 ft | 451 kts | 112° |
| 2026-04-21 19:08 | 54.22425 | 39.70182 | 34672 ft | 451 kts | 112° |
| 2026-04-21 19:08 | 54.21205 | 39.75119 | 34869 ft | 451 kts | 112° |
| 2026-04-21 19:08 | 54.19980 | 39.80053 | 35062 ft | 451 kts | 112° |
| 2026-04-21 19:08 | 54.18753 | 39.84992 | 35246 ft | 452 kts | 112° |
| 2026-04-21 19:09 | 54.17524 | 39.89934 | 35430 ft | 452 kts | 112° |
| 2026-04-21 19:09 | 54.16297 | 39.94864 | 35611 ft | 452 kts | 112° |
| 2026-04-21 19:09 | 54.15065 | 39.99804 | 35783 ft | 452 kts | 113° |
| 2026-04-21 19:09 | 54.13828 | 40.04745 | 35952 ft | 452 kts | 113° |
| 2026-04-21 19:10 | 54.12593 | 40.09664 | 36120 ft | 452 kts | 113° |
| 2026-04-21 19:10 | 54.11460 | 40.14675 | 36278 ft | 452 kts | 106° |
| 2026-04-21 19:10 | 54.10573 | 40.19826 | 36426 ft | 453 kts | 106° |
| 2026-04-21 19:10 | 54.09690 | 40.24969 | 36579 ft | 453 kts | 106° |
| 2026-04-21 19:11 | 54.08800 | 40.30120 | 36725 ft | 453 kts | 106° |
| 2026-04-21 19:11 | 54.07908 | 40.35270 | 36871 ft | 453 kts | 106° |
| 2026-04-21 19:11 | 54.07010 | 40.40426 | 37005 ft | 454 kts | 107° |
| 2026-04-21 19:11 | 54.06122 | 40.45500 | 37141 ft | 454 kts | 107° |
| 2026-04-21 19:12 | 54.05219 | 40.50656 | 37275 ft | 454 kts | 107° |
| 2026-04-21 19:12 | 54.04313 | 40.55797 | 37398 ft | 454 kts | 107° |
| 2026-04-21 19:12 | 54.03399 | 40.60948 | 37547 ft | 454 kts | 107° |
| 2026-04-21 19:12 | 54.02484 | 40.66088 | 37675 ft | 454 kts | 107° |
| 2026-04-21 19:13 | 54.01570 | 40.71222 | 37813 ft | 454 kts | 107° |
| 2026-04-21 19:13 | 54.00656 | 40.76365 | 37945 ft | 454 kts | 107° |
| 2026-04-21 19:13 | 53.99739 | 40.81518 | 38023 ft | 455 kts | 107° |
| 2026-04-21 19:14 | 53.97896 | 40.91820 | 38026 ft | 456 kts | 107° |
| 2026-04-21 19:14 | 53.96040 | 41.02133 | 38027 ft | 456 kts | 107° |
| 2026-04-21 19:15 | 53.94243 | 41.12478 | 38026 ft | 456 kts | 106° |
| 2026-04-21 19:15 | 53.93402 | 41.17661 | 37792 ft | 455 kts | 105° |
| 2026-04-21 19:15 | 53.92576 | 41.22847 | 37167 ft | 454 kts | 105° |
| 2026-04-21 19:15 | 53.91751 | 41.28012 | 36932 ft | 454 kts | 105° |
| 2026-04-21 19:16 | 53.90931 | 41.33106 | 36936 ft | 454 kts | 105° |
| 2026-04-21 19:16 | 53.89226 | 41.43455 | 36941 ft | 456 kts | 106° |
| 2026-04-21 19:17 | 53.86598 | 41.59035 | 36940 ft | 457 kts | 106° |
| 2026-04-21 19:17 | 53.84859 | 41.69312 | 36941 ft | 456 kts | 106° |
| 2026-04-21 19:18 | 53.83106 | 41.79643 | 36943 ft | 457 kts | 106° |
| 2026-04-21 19:18 | 53.81344 | 41.89970 | 36939 ft | 457 kts | 107° |
| 2026-04-21 19:19 | 53.79569 | 42.00290 | 36968 ft | 458 kts | 107° |
| 2026-04-21 19:19 | 53.78676 | 42.05461 | 37128 ft | 457 kts | 107° |
| 2026-04-21 19:19 | 53.77780 | 42.10614 | 37275 ft | 457 kts | 107° |
| 2026-04-21 19:20 | 53.76878 | 42.15778 | 37425 ft | 457 kts | 107° |
| 2026-04-21 19:20 | 53.75976 | 42.20934 | 37556 ft | 457 kts | 107° |
| 2026-04-21 19:20 | 53.75070 | 42.26081 | 37688 ft | 457 kts | 107° |
| 2026-04-21 19:20 | 53.74164 | 42.31234 | 37816 ft | 457 kts | 107° |
| 2026-04-21 19:21 | 53.73257 | 42.36390 | 37946 ft | 457 kts | 107° |
| 2026-04-21 19:21 | 53.72347 | 42.41522 | 38079 ft | 457 kts | 107° |
| 2026-04-21 19:21 | 53.71436 | 42.46663 | 38213 ft | 456 kts | 107° |
| 2026-04-21 19:21 | 53.70527 | 42.51794 | 38347 ft | 456 kts | 107° |
| 2026-04-21 19:22 | 53.69579 | 42.56883 | 38481 ft | 455 kts | 112° |
| 2026-04-21 19:22 | 53.68214 | 42.61598 | 38605 ft | 452 kts | 123° |
| 2026-04-21 19:22 | 53.66342 | 42.65812 | 38712 ft | 449 kts | 134° |
| 2026-04-21 19:22 | 53.64056 | 42.69358 | 38853 ft | 445 kts | 144° |
| 2026-04-21 19:23 | 53.61449 | 42.72146 | 38920 ft | 443 kts | 155° |
| 2026-04-21 19:23 | 53.58640 | 42.74248 | 38938 ft | 444 kts | 158° |
| 2026-04-21 19:23 | 53.52935 | 42.78348 | 38934 ft | 447 kts | 158° |
| 2026-04-21 19:24 | 53.47189 | 42.82494 | 38934 ft | 451 kts | 158° |
| 2026-04-21 19:24 | 53.41420 | 42.86649 | 38936 ft | 452 kts | 158° |
| 2026-04-21 19:25 | 53.35629 | 42.90782 | 38937 ft | 452 kts | 158° |
| 2026-04-21 19:25 | 53.29840 | 42.94894 | 38942 ft | 452 kts | 158° |
| 2026-04-21 19:26 | 53.24048 | 42.99027 | 38942 ft | 453 kts | 158° |
| 2026-04-21 19:26 | 53.18257 | 43.03144 | 38953 ft | 453 kts | 158° |
| 2026-04-21 19:27 | 53.12495 | 43.07221 | 38957 ft | 453 kts | 158° |
| 2026-04-21 19:27 | 53.06732 | 43.11461 | 38956 ft | 453 kts | 157° |
| 2026-04-21 19:28 | 53.00986 | 43.15797 | 38956 ft | 453 kts | 157° |
| 2026-04-21 19:28 | 52.95237 | 43.20096 | 38956 ft | 453 kts | 157° |
| 2026-04-21 19:29 | 52.89465 | 43.24357 | 38953 ft | 453 kts | 158° |
| 2026-04-21 19:29 | 52.83701 | 43.28589 | 38956 ft | 453 kts | 158° |
| 2026-04-21 19:30 | 52.77941 | 43.32806 | 38957 ft | 453 kts | 158° |
| 2026-04-21 19:30 | 52.72163 | 43.37022 | 38948 ft | 453 kts | 158° |
| 2026-04-21 19:31 | 52.66395 | 43.41236 | 38952 ft | 454 kts | 158° |
| 2026-04-21 19:31 | 52.60624 | 43.45442 | 38946 ft | 454 kts | 158° |
| 2026-04-21 19:32 | 52.54849 | 43.49635 | 38950 ft | 453 kts | 158° |
| 2026-04-21 19:32 | 52.49080 | 43.53815 | 38953 ft | 453 kts | 158° |
| 2026-04-21 19:33 | 52.43347 | 43.57946 | 38950 ft | 453 kts | 158° |
| 2026-04-21 19:33 | 52.37579 | 43.62092 | 38948 ft | 453 kts | 158° |
| 2026-04-21 19:34 | 52.31812 | 43.66230 | 38950 ft | 453 kts | 158° |
| 2026-04-21 19:34 | 52.26044 | 43.70360 | 38948 ft | 453 kts | 158° |
| 2026-04-21 19:35 | 52.17388 | 43.76530 | 38950 ft | 453 kts | 159° |
| 2026-04-21 19:36 | 52.11600 | 43.80627 | 38954 ft | 453 kts | 159° |
| 2026-04-21 19:36 | 52.05819 | 43.84716 | 38952 ft | 453 kts | 159° |
| 2026-04-21 19:37 | 52.00045 | 43.88792 | 38957 ft | 452 kts | 159° |
| 2026-04-21 19:37 | 51.94272 | 43.92865 | 38953 ft | 453 kts | 159° |
| 2026-04-21 19:38 | 51.88500 | 43.96928 | 38954 ft | 452 kts | 159° |
| 2026-04-21 19:38 | 51.83694 | 44.00299 | 38957 ft | 452 kts | 159° |
| 2026-04-21 19:39 | 51.76973 | 44.05001 | 38958 ft | 452 kts | 159° |
| 2026-04-21 19:39 | 51.71185 | 44.09023 | 38962 ft | 452 kts | 159° |
| 2026-04-21 19:40 | 51.65406 | 44.13025 | 38962 ft | 452 kts | 159° |
| 2026-04-21 19:40 | 51.59621 | 44.17035 | 38960 ft | 452 kts | 159° |
| 2026-04-21 19:41 | 51.53837 | 44.21033 | 38965 ft | 452 kts | 159° |
| 2026-04-21 19:41 | 51.48059 | 44.25006 | 38965 ft | 452 kts | 159° |
| 2026-04-21 19:42 | 51.42266 | 44.28980 | 38965 ft | 452 kts | 159° |
| 2026-04-21 19:42 | 51.36482 | 44.32938 | 38945 ft | 454 kts | 159° |
| 2026-04-21 19:43 | 51.30647 | 44.36914 | 38948 ft | 457 kts | 160° |
| 2026-04-21 19:43 | 51.24833 | 44.40877 | 38942 ft | 459 kts | 160° |
| 2026-04-21 19:44 | 51.18940 | 44.44832 | 38940 ft | 459 kts | 164° |
| 2026-04-21 19:44 | 51.12732 | 44.46563 | 38947 ft | 452 kts | 183° |
| 2026-04-21 19:45 | 51.06462 | 44.46017 | 38948 ft | 452 kts | 186° |
| 2026-04-21 19:45 | 51.00169 | 44.45426 | 38938 ft | 453 kts | 186° |
| 2026-04-21 19:46 | 50.93861 | 44.44839 | 38925 ft | 454 kts | 186° |
| 2026-04-21 19:46 | 50.87549 | 44.44249 | 38921 ft | 455 kts | 186° |
| 2026-04-21 19:47 | 50.81227 | 44.43666 | 38920 ft | 455 kts | 186° |
| 2026-04-21 19:47 | 50.74912 | 44.43086 | 38919 ft | 455 kts | 186° |
| 2026-04-21 19:48 | 50.69655 | 44.42607 | 38921 ft | 455 kts | 186° |
| 2026-04-21 19:48 | 50.62321 | 44.41930 | 38922 ft | 454 kts | 186° |
| 2026-04-21 19:49 | 50.56007 | 44.41336 | 38924 ft | 454 kts | 186° |
| 2026-04-21 19:49 | 50.50720 | 44.40845 | 38921 ft | 454 kts | 186° |
| 2026-04-21 19:50 | 50.44414 | 44.40268 | 38924 ft | 454 kts | 186° |
| 2026-04-21 19:50 | 50.38109 | 44.39702 | 38925 ft | 453 kts | 186° |
| 2026-04-21 19:51 | 50.31858 | 44.39136 | 38926 ft | 453 kts | 186° |
| 2026-04-21 19:51 | 50.25565 | 44.38565 | 38922 ft | 453 kts | 186° |
| 2026-04-21 19:52 | 50.19276 | 44.37996 | 38924 ft | 453 kts | 186° |
| 2026-04-21 19:52 | 50.12992 | 44.37427 | 38929 ft | 452 kts | 186° |
| 2026-04-21 19:53 | 50.06711 | 44.36857 | 38929 ft | 451 kts | 186° |
| 2026-04-21 19:53 | 50.00447 | 44.36281 | 38929 ft | 451 kts | 186° |
| 2026-04-21 19:54 | 49.94180 | 44.35715 | 38931 ft | 451 kts | 186° |
| 2026-04-21 19:54 | 49.87919 | 44.35167 | 38929 ft | 451 kts | 186° |
| 2026-04-21 19:55 | 49.81657 | 44.34621 | 38930 ft | 450 kts | 186° |
| 2026-04-21 19:55 | 49.75398 | 44.34065 | 38931 ft | 450 kts | 186° |
| 2026-04-21 19:56 | 49.69145 | 44.33506 | 38931 ft | 450 kts | 186° |
| 2026-04-21 19:56 | 49.62892 | 44.32953 | 38926 ft | 450 kts | 186° |
| 2026-04-21 19:57 | 49.56670 | 44.33131 | 38921 ft | 456 kts | 172° |
| 2026-04-21 19:57 | 49.50636 | 44.36366 | 38921 ft | 462 kts | 161° |
| 2026-04-21 19:58 | 49.44691 | 44.40172 | 38920 ft | 462 kts | 161° |
| 2026-04-21 19:58 | 49.38751 | 44.43933 | 38923 ft | 462 kts | 162° |
| 2026-04-21 19:59 | 49.32807 | 44.47683 | 38922 ft | 462 kts | 161° |
| 2026-04-21 19:59 | 49.26860 | 44.51438 | 38916 ft | 462 kts | 162° |
| 2026-04-21 20:00 | 49.20912 | 44.55186 | 38921 ft | 462 kts | 162° |
| 2026-04-21 20:00 | 49.14971 | 44.58920 | 38912 ft | 462 kts | 162° |
| 2026-04-21 20:01 | 49.09021 | 44.62653 | 38918 ft | 462 kts | 162° |
| 2026-04-21 20:01 | 49.03080 | 44.66370 | 38925 ft | 462 kts | 162° |
| 2026-04-21 20:02 | 48.97127 | 44.70068 | 38921 ft | 462 kts | 162° |
| 2026-04-21 20:02 | 48.91173 | 44.73758 | 38917 ft | 462 kts | 162° |
| 2026-04-21 20:03 | 48.85235 | 44.77481 | 38915 ft | 463 kts | 158° |
| 2026-04-21 20:03 | 48.79835 | 44.82982 | 38915 ft | 471 kts | 146° |
| 2026-04-21 20:04 | 48.74719 | 44.89074 | 38916 ft | 471 kts | 146° |
| 2026-04-21 20:04 | 48.69547 | 44.95191 | 38919 ft | 471 kts | 146° |
| 2026-04-21 20:05 | 48.64379 | 45.01280 | 38919 ft | 471 kts | 147° |
| 2026-04-21 20:05 | 48.59212 | 45.07362 | 38915 ft | 472 kts | 146° |
| 2026-04-21 20:06 | 48.54027 | 45.13451 | 38916 ft | 472 kts | 147° |
| 2026-04-21 20:06 | 48.48842 | 45.19523 | 38925 ft | 472 kts | 147° |
| 2026-04-21 20:07 | 48.43638 | 45.25598 | 38923 ft | 473 kts | 147° |
| 2026-04-21 20:07 | 48.38223 | 45.31065 | 38913 ft | 465 kts | 159° |
| 2026-04-21 20:08 | 48.32399 | 45.35342 | 38919 ft | 465 kts | 158° |
| 2026-04-21 20:08 | 48.26583 | 45.39606 | 38918 ft | 465 kts | 158° |
| 2026-04-21 20:09 | 48.20769 | 45.43867 | 38918 ft | 466 kts | 158° |
| 2026-04-21 20:09 | 48.14942 | 45.48130 | 38923 ft | 466 kts | 158° |
| 2026-04-21 20:10 | 48.09115 | 45.52374 | 38923 ft | 466 kts | 158° |
| 2026-04-21 20:10 | 48.03293 | 45.56615 | 38929 ft | 465 kts | 158° |
| 2026-04-21 20:11 | 47.97469 | 45.60836 | 38933 ft | 465 kts | 158° |
| 2026-04-21 20:11 | 47.91647 | 45.65046 | 38943 ft | 465 kts | 158° |
| 2026-04-21 20:12 | 47.85827 | 45.69235 | 38945 ft | 465 kts | 159° |
| 2026-04-21 20:12 | 47.80044 | 45.73392 | 38942 ft | 464 kts | 158° |
| 2026-04-21 20:13 | 47.74227 | 45.77577 | 38942 ft | 464 kts | 159° |
| 2026-04-21 20:13 | 47.68408 | 45.81750 | 38943 ft | 464 kts | 159° |
| 2026-04-21 20:14 | 47.62595 | 45.85902 | 38948 ft | 464 kts | 159° |
| 2026-04-21 20:14 | 47.56777 | 45.90043 | 38950 ft | 464 kts | 159° |
| 2026-04-21 20:15 | 47.50956 | 45.94178 | 38956 ft | 464 kts | 159° |
| 2026-04-21 20:15 | 47.45138 | 45.98312 | 38957 ft | 464 kts | 159° |
| 2026-04-21 20:16 | 47.39313 | 46.02428 | 38959 ft | 464 kts | 159° |
| 2026-04-21 20:16 | 47.33496 | 46.06537 | 38958 ft | 464 kts | 159° |
| 2026-04-21 20:17 | 47.27677 | 46.10647 | 38958 ft | 464 kts | 159° |
| 2026-04-21 20:17 | 47.21864 | 46.14743 | 38962 ft | 463 kts | 159° |
| 2026-04-21 20:18 | 47.17028 | 46.18145 | 38962 ft | 463 kts | 159° |
| 2026-04-21 20:18 | 47.10225 | 46.22915 | 38968 ft | 463 kts | 159° |
| 2026-04-21 20:19 | 47.04811 | 46.28133 | 38968 ft | 474 kts | 139° |
| 2026-04-21 20:19 | 47.02640 | 46.31814 | 38970 ft | 480 kts | 128° |
| 2026-04-21 20:19 | 47.00818 | 46.35929 | 38967 ft | 482 kts | 126° |
| 2026-04-21 20:20 | 46.97227 | 46.44218 | 38968 ft | 482 kts | 126° |
| 2026-04-21 20:20 | 46.93627 | 46.52501 | 38976 ft | 482 kts | 126° |
| 2026-04-21 20:21 | 46.90038 | 46.60699 | 38979 ft | 482 kts | 126° |
| 2026-04-21 20:21 | 46.86418 | 46.68940 | 38980 ft | 481 kts | 126° |
| 2026-04-21 20:22 | 46.82801 | 46.77160 | 38982 ft | 481 kts | 126° |
| 2026-04-21 20:22 | 46.77365 | 46.89476 | 38989 ft | 481 kts | 126° |
| 2026-04-21 20:23 | 46.73737 | 46.97672 | 38993 ft | 480 kts | 127° |
| 2026-04-21 20:23 | 46.70107 | 47.05832 | 39000 ft | 480 kts | 127° |
| 2026-04-21 20:24 | 46.66492 | 47.14020 | 39005 ft | 480 kts | 126° |
| 2026-04-21 20:24 | 46.62930 | 47.22245 | 39008 ft | 480 kts | 126° |
| 2026-04-21 20:25 | 46.59365 | 47.30456 | 39007 ft | 480 kts | 126° |
| 2026-04-21 20:25 | 46.55774 | 47.38641 | 39003 ft | 480 kts | 126° |
| 2026-04-21 20:26 | 46.52180 | 47.46815 | 39005 ft | 480 kts | 126° |
| 2026-04-21 20:26 | 46.48580 | 47.54983 | 39005 ft | 480 kts | 126° |
| 2026-04-21 20:27 | 46.44973 | 47.63133 | 39007 ft | 480 kts | 126° |
| 2026-04-21 20:27 | 46.41360 | 47.71277 | 39012 ft | 480 kts | 126° |
| 2026-04-21 20:28 | 46.37743 | 47.79409 | 39015 ft | 480 kts | 127° |
| 2026-04-21 20:28 | 46.34117 | 47.87533 | 39018 ft | 480 kts | 127° |
| 2026-04-21 20:29 | 46.30482 | 47.95654 | 39018 ft | 481 kts | 127° |
| 2026-04-21 20:29 | 46.27600 | 48.04412 | 39016 ft | 489 kts | 108° |
| 2026-04-21 20:30 | 46.26116 | 48.14020 | 39015 ft | 491 kts | 105° |
| 2026-04-21 20:30 | 46.24658 | 48.23659 | 39016 ft | 491 kts | 105° |
| 2026-04-21 20:31 | 46.23178 | 48.33276 | 39013 ft | 491 kts | 105° |
| 2026-04-21 20:31 | 46.21684 | 48.42903 | 39016 ft | 491 kts | 105° |
| 2026-04-21 20:32 | 46.20118 | 48.52500 | 39012 ft | 488 kts | 111° |
| 2026-04-21 20:32 | 46.18828 | 48.56992 | 39011 ft | 482 kts | 122° |
| 2026-04-21 20:32 | 46.17689 | 48.59729 | 39010 ft | 478 kts | 129° |
| 2026-04-21 20:33 | 46.13121 | 48.66466 | 39005 ft | 467 kts | 147° |
| 2026-04-21 20:33 | 46.06575 | 48.71435 | 39005 ft | 453 kts | 173° |
| 2026-04-21 20:34 | 46.00358 | 48.71794 | 39001 ft | 447 kts | 184° |
| 2026-04-21 20:34 | 45.95144 | 48.71669 | 39002 ft | 448 kts | 184° |
| 2026-04-21 20:35 | 45.88905 | 48.71495 | 39002 ft | 448 kts | 184° |
| 2026-04-21 20:35 | 45.82658 | 48.71352 | 39002 ft | 449 kts | 184° |
| 2026-04-21 20:36 | 45.76413 | 48.71224 | 39002 ft | 449 kts | 184° |
| 2026-04-21 20:36 | 45.70193 | 48.71087 | 39005 ft | 450 kts | 184° |
| 2026-04-21 20:37 | 45.63895 | 48.70942 | 39015 ft | 450 kts | 184° |
| 2026-04-21 20:37 | 45.57628 | 48.70803 | 39006 ft | 450 kts | 184° |
| 2026-04-21 20:38 | 45.51373 | 48.70666 | 39017 ft | 450 kts | 184° |
| 2026-04-21 20:38 | 45.45095 | 48.70530 | 39017 ft | 451 kts | 184° |
| 2026-04-21 20:39 | 45.38829 | 48.70395 | 39019 ft | 451 kts | 184° |
| 2026-04-21 20:39 | 45.32558 | 48.70257 | 39020 ft | 451 kts | 184° |
| 2026-04-21 20:40 | 45.26282 | 48.70105 | 39017 ft | 451 kts | 184° |
| 2026-04-21 20:40 | 45.20003 | 48.69966 | 39020 ft | 451 kts | 184° |
| 2026-04-21 20:41 | 45.13770 | 48.69844 | 39020 ft | 451 kts | 184° |
| 2026-04-21 20:41 | 45.07487 | 48.69730 | 39017 ft | 451 kts | 184° |
| 2026-04-21 20:42 | 45.01209 | 48.69595 | 39015 ft | 451 kts | 184° |
| 2026-04-21 20:42 | 44.94922 | 48.69453 | 39018 ft | 451 kts | 184° |
| 2026-04-21 20:43 | 44.88639 | 48.69321 | 39016 ft | 452 kts | 184° |
| 2026-04-21 20:43 | 44.82353 | 48.69192 | 39019 ft | 452 kts | 184° |
| 2026-04-21 20:44 | 44.76063 | 48.69051 | 39020 ft | 452 kts | 184° |
| 2026-04-21 20:44 | 44.69777 | 48.68909 | 39019 ft | 452 kts | 184° |
| 2026-04-21 20:45 | 44.63485 | 48.68774 | 39020 ft | 452 kts | 184° |
| 2026-04-21 20:45 | 44.57192 | 48.68650 | 39020 ft | 452 kts | 184° |
| 2026-04-21 20:46 | 44.50904 | 48.68520 | 39018 ft | 452 kts | 184° |
| 2026-04-21 20:46 | 44.44659 | 48.68384 | 39019 ft | 452 kts | 184° |
| 2026-04-21 20:47 | 44.38331 | 48.68247 | 39019 ft | 452 kts | 184° |
| 2026-04-21 20:47 | 44.32074 | 48.68112 | 39016 ft | 452 kts | 184° |
| 2026-04-21 20:48 | 44.25740 | 48.67975 | 39016 ft | 452 kts | 184° |
| 2026-04-21 20:48 | 44.19485 | 48.67856 | 39014 ft | 452 kts | 184° |
| 2026-04-21 20:49 | 44.13181 | 48.67724 | 39015 ft | 453 kts | 184° |
| 2026-04-21 20:49 | 44.06935 | 48.67117 | 39012 ft | 447 kts | 198° |
| 2026-04-21 20:50 | 44.04073 | 48.65521 | 39012 ft | 443 kts | 211° |
| 2026-04-21 20:50 | 44.01396 | 48.63390 | 39013 ft | 443 kts | 211° |
| 2026-04-21 20:50 | 43.96072 | 48.59072 | 39013 ft | 443 kts | 212° |
| 2026-04-21 20:51 | 43.90745 | 48.54731 | 39018 ft | 444 kts | 212° |
| 2026-04-21 20:51 | 43.85412 | 48.50427 | 39019 ft | 444 kts | 211° |
| 2026-04-21 20:52 | 43.80070 | 48.46137 | 39021 ft | 444 kts | 211° |
| 2026-04-21 20:52 | 43.74726 | 48.41848 | 39024 ft | 444 kts | 212° |
| 2026-04-21 20:53 | 43.69380 | 48.37562 | 39022 ft | 444 kts | 211° |
| 2026-04-21 20:53 | 43.64064 | 48.33315 | 39021 ft | 444 kts | 212° |
| 2026-04-21 20:54 | 43.58716 | 48.29041 | 39021 ft | 444 kts | 212° |
| 2026-04-21 20:54 | 43.53360 | 48.24778 | 39020 ft | 445 kts | 211° |
| 2026-04-21 20:55 | 43.48001 | 48.20522 | 39020 ft | 445 kts | 212° |
| 2026-04-21 20:55 | 43.42632 | 48.16259 | 39019 ft | 445 kts | 212° |
| 2026-04-21 20:56 | 43.37266 | 48.12011 | 39020 ft | 445 kts | 211° |
| 2026-04-21 20:56 | 43.31895 | 48.07762 | 39018 ft | 445 kts | 212° |
| 2026-04-21 20:57 | 43.26555 | 48.03544 | 39017 ft | 446 kts | 211° |
| 2026-04-21 20:57 | 43.21173 | 47.99307 | 39018 ft | 446 kts | 212° |
| 2026-04-21 20:58 | 43.15789 | 47.95077 | 39017 ft | 446 kts | 211° |
| 2026-04-21 20:58 | 43.10409 | 47.90856 | 39018 ft | 446 kts | 212° |
| 2026-04-21 20:59 | 43.05014 | 47.86635 | 39011 ft | 446 kts | 211° |
| 2026-04-21 20:59 | 42.99613 | 47.82437 | 39004 ft | 446 kts | 211° |
| 2026-04-21 21:00 | 42.94214 | 47.78243 | 38998 ft | 446 kts | 211° |
| 2026-04-21 21:00 | 42.88820 | 47.74052 | 38991 ft | 446 kts | 211° |
| 2026-04-21 21:01 | 42.83420 | 47.69872 | 38999 ft | 446 kts | 211° |
| 2026-04-21 21:01 | 42.78431 | 47.64939 | 38999 ft | 442 kts | 228° |
| 2026-04-21 21:02 | 42.74527 | 47.58487 | 39001 ft | 442 kts | 232° |
| 2026-04-21 21:02 | 42.70661 | 47.51983 | 39002 ft | 442 kts | 232° |
| 2026-04-21 21:03 | 42.66778 | 47.45490 | 39008 ft | 442 kts | 232° |
| 2026-04-21 21:03 | 42.62919 | 47.39059 | 39013 ft | 442 kts | 232° |
| 2026-04-21 21:04 | 42.59033 | 47.32580 | 39016 ft | 442 kts | 232° |
| 2026-04-21 21:04 | 42.55149 | 47.26111 | 39018 ft | 442 kts | 232° |
| 2026-04-21 21:05 | 42.51260 | 47.19661 | 38992 ft | 438 kts | 232° |
| 2026-04-21 21:05 | 42.49358 | 47.16511 | 38975 ft | 427 kts | 232° |
| 2026-04-21 21:05 | 42.47489 | 47.13418 | 38977 ft | 422 kts | 232° |
| 2026-04-21 21:06 | 42.43770 | 47.07262 | 38131 ft | 424 kts | 232° |
| 2026-04-21 21:06 | 42.41909 | 47.04187 | 37572 ft | 421 kts | 232° |
| 2026-04-21 21:06 | 42.40055 | 47.01127 | 36980 ft | 418 kts | 232° |
| 2026-04-21 21:07 | 42.38209 | 46.98084 | 36268 ft | 419 kts | 232° |
| 2026-04-21 21:07 | 42.36358 | 46.95033 | 35553 ft | 420 kts | 232° |
| 2026-04-21 21:07 | 42.34496 | 46.91968 | 34843 ft | 422 kts | 233° |
| 2026-04-21 21:07 | 42.32646 | 46.88929 | 34371 ft | 417 kts | 233° |
| 2026-04-21 21:08 | 42.30809 | 46.85911 | 33821 ft | 414 kts | 233° |
| 2026-04-21 21:08 | 42.28993 | 46.82930 | 33281 ft | 409 kts | 233° |
| 2026-04-21 21:08 | 42.27192 | 46.79984 | 32772 ft | 404 kts | 233° |
| 2026-04-21 21:08 | 42.25409 | 46.77071 | 32266 ft | 400 kts | 233° |
| 2026-04-21 21:09 | 42.23645 | 46.74187 | 31770 ft | 397 kts | 233° |
| 2026-04-21 21:09 | 42.21892 | 46.71328 | 31280 ft | 394 kts | 232° |
| 2026-04-21 21:09 | 42.20152 | 46.68494 | 30793 ft | 391 kts | 232° |
| 2026-04-21 21:09 | 42.18446 | 46.65710 | 30306 ft | 388 kts | 232° |
| 2026-04-21 21:10 | 42.16710 | 46.62882 | 29801 ft | 385 kts | 232° |
| 2026-04-21 21:10 | 42.15008 | 46.60116 | 29325 ft | 381 kts | 232° |
| 2026-04-21 21:10 | 42.13350 | 46.57426 | 28868 ft | 376 kts | 232° |
| 2026-04-21 21:10 | 42.11671 | 46.54704 | 28428 ft | 372 kts | 232° |
| 2026-04-21 21:11 | 42.10043 | 46.52066 | 27986 ft | 368 kts | 232° |
| 2026-04-21 21:11 | 42.08419 | 46.49429 | 27578 ft | 364 kts | 232° |
| 2026-04-21 21:11 | 42.06815 | 46.46818 | 27157 ft | 361 kts | 233° |
| 2026-04-21 21:11 | 42.05224 | 46.44232 | 26758 ft | 357 kts | 233° |
| 2026-04-21 21:12 | 42.03647 | 46.41676 | 26354 ft | 353 kts | 232° |
| 2026-04-21 21:12 | 42.02083 | 46.39155 | 25955 ft | 349 kts | 232° |
| 2026-04-21 21:12 | 42.00535 | 46.36662 | 25549 ft | 345 kts | 233° |
| 2026-04-21 21:12 | 41.99007 | 46.34203 | 25151 ft | 341 kts | 233° |
| 2026-04-21 21:13 | 41.97489 | 46.31763 | 24735 ft | 338 kts | 233° |
| 2026-04-21 21:13 | 41.95988 | 46.29344 | 24327 ft | 336 kts | 233° |
| 2026-04-21 21:13 | 41.94533 | 46.26907 | 23890 ft | 334 kts | 236° |
| 2026-04-21 21:13 | 41.93157 | 46.24401 | 23410 ft | 333 kts | 237° |
| 2026-04-21 21:14 | 41.91824 | 46.21869 | 22945 ft | 331 kts | 238° |
| 2026-04-21 21:14 | 41.90514 | 46.19339 | 22498 ft | 328 kts | 238° |
| 2026-04-21 21:14 | 41.89211 | 46.16829 | 22053 ft | 327 kts | 237° |
| 2026-04-21 21:14 | 41.87907 | 46.14338 | 21617 ft | 326 kts | 237° |
| 2026-04-21 21:15 | 41.86598 | 46.11865 | 21178 ft | 324 kts | 237° |
| 2026-04-21 21:15 | 41.85287 | 46.09410 | 20745 ft | 323 kts | 237° |
| 2026-04-21 21:15 | 41.83978 | 46.06968 | 20317 ft | 322 kts | 236° |
| 2026-04-21 21:15 | 41.82670 | 46.04533 | 19896 ft | 321 kts | 236° |
| 2026-04-21 21:16 | 41.81383 | 46.02138 | 19470 ft | 321 kts | 236° |
| 2026-04-21 21:16 | 41.80064 | 45.99686 | 19044 ft | 320 kts | 236° |
| 2026-04-21 21:16 | 41.78780 | 45.97296 | 18627 ft | 320 kts | 236° |
| 2026-04-21 21:16 | 41.77483 | 45.94884 | 18199 ft | 319 kts | 236° |
| 2026-04-21 21:17 | 41.76187 | 45.92472 | 17750 ft | 318 kts | 236° |
| 2026-04-21 21:17 | 41.74899 | 45.90078 | 17318 ft | 316 kts | 236° |
| 2026-04-21 21:17 | 41.73619 | 45.87703 | 16920 ft | 314 kts | 236° |
| 2026-04-21 21:17 | 41.72340 | 45.85335 | 16527 ft | 312 kts | 236° |
| 2026-04-21 21:18 | 41.71069 | 45.82986 | 16124 ft | 311 kts | 236° |
| 2026-04-21 21:18 | 41.69802 | 45.80645 | 15735 ft | 310 kts | 237° |
| 2026-04-21 21:18 | 41.68544 | 45.78312 | 15336 ft | 309 kts | 237° |
| 2026-04-21 21:18 | 41.67291 | 45.75986 | 14947 ft | 308 kts | 237° |
| 2026-04-21 21:19 | 41.66017 | 45.73625 | 14551 ft | 321 kts | 237° |
| 2026-04-21 21:19 | 41.64679 | 45.71144 | 14124 ft | 340 kts | 237° |
| 2026-04-21 21:19 | 41.63261 | 45.68520 | 13659 ft | 363 kts | 236° |
| 2026-04-21 21:19 | 41.61723 | 45.65677 | 13154 ft | 386 kts | 236° |
| 2026-04-21 21:20 | 41.60670 | 45.63742 | 12821 ft | 389 kts | 236° |
| 2026-04-21 21:20 | 41.59077 | 45.60828 | 12307 ft | 386 kts | 236° |
| 2026-04-21 21:20 | 41.57544 | 45.58031 | 12017 ft | 357 kts | 236° |
| 2026-04-21 21:20 | 41.55707 | 45.54679 | 11629 ft | 321 kts | 238° |
| 2026-04-21 21:21 | 41.54966 | 45.52973 | 11186 ft | 311 kts | 248° |
| 2026-04-21 21:21 | 41.54333 | 45.50278 | 10514 ft | 299 kts | 263° |
| 2026-04-21 21:21 | 41.54139 | 45.47596 | 10104 ft | 282 kts | 267° |
| 2026-04-21 21:21 | 41.53977 | 45.45062 | 9665 ft | 269 kts | 267° |
| 2026-04-21 21:22 | 41.53812 | 45.42615 | 9409 ft | 263 kts | 267° |
| 2026-04-21 21:22 | 41.53648 | 45.40174 | 8992 ft | 263 kts | 267° |
| 2026-04-21 21:22 | 41.53486 | 45.37760 | 8467 ft | 261 kts | 267° |
| 2026-04-21 21:22 | 41.53324 | 45.35339 | 7936 ft | 263 kts | 267° |
| 2026-04-21 21:23 | 41.53161 | 45.32916 | 7543 ft | 261 kts | 267° |
| 2026-04-21 21:23 | 41.53006 | 45.30635 | 7201 ft | 257 kts | 266° |
| 2026-04-21 21:23 | 41.52844 | 45.28313 | 7084 ft | 245 kts | 267° |
| 2026-04-21 21:23 | 41.52691 | 45.26117 | 6945 ft | 234 kts | 267° |
| 2026-04-21 21:24 | 41.52546 | 45.23996 | 6762 ft | 226 kts | 267° |
| 2026-04-21 21:24 | 41.52404 | 45.21891 | 6376 ft | 227 kts | 267° |
| 2026-04-21 21:24 | 41.52262 | 45.19814 | 6031 ft | 225 kts | 266° |
| 2026-04-21 21:24 | 41.52121 | 45.17732 | 5651 ft | 225 kts | 266° |
| 2026-04-21 21:25 | 41.52016 | 45.15685 | 5455 ft | 215 kts | 275° |
| 2026-04-21 21:25 | 41.52381 | 45.13809 | 5334 ft | 209 kts | 296° |
| 2026-04-21 21:25 | 41.53268 | 45.12275 | 4998 ft | 211 kts | 316° |
| 2026-04-21 21:25 | 41.54348 | 45.10939 | 4676 ft | 212 kts | 316° |
| 2026-04-21 21:26 | 41.55419 | 45.09596 | 4401 ft | 210 kts | 315° |
| 2026-04-21 21:26 | 41.56474 | 45.08265 | 4132 ft | 208 kts | 316° |
| 2026-04-21 21:26 | 41.57521 | 45.06947 | 3860 ft | 206 kts | 316° |
| 2026-04-21 21:26 | 41.58560 | 45.05640 | 3578 ft | 203 kts | 316° |
| 2026-04-21 21:27 | 41.59567 | 45.04373 | 3305 ft | 195 kts | 316° |
| 2026-04-21 21:27 | 41.60520 | 45.03174 | 3067 ft | 181 kts | 316° |
| 2026-04-21 21:27 | 41.61390 | 45.02078 | 2789 ft | 162 kts | 316° |
| 2026-04-21 21:27 | 41.62171 | 45.01093 | 2549 ft | 147 kts | 317° |
| 2026-04-21 21:28 | 41.62898 | 45.00176 | 2344 ft | 142 kts | 318° |
| 2026-04-21 21:28 | 41.63612 | 44.99278 | 2112 ft | 139 kts | 318° |
| 2026-04-21 21:28 | 41.65006 | 44.97517 | 1734 ft | 137 kts | 318° |
| 2026-04-21 21:29 | 41.65695 | 44.96642 | 1581 ft | 137 kts | 318° |
| 2026-04-21 21:29 | 41.66360 | 44.95828 | 1521 ft | 113 kts | 318° |
| 2026-04-21 21:29 | 41.66805 | 44.95254 | 1522 ft | 64 kts | 316° |
| 2026-04-21 21:29 | 41.67032 | 44.94967 | 1527 ft | 41 kts | 317° |
| 2026-04-21 21:30 | 41.67231 | 44.94718 | 1525 ft | 38 kts | 317° |
| 2026-04-21 21:30 | 41.67417 | 44.94484 | 1524 ft | 35 kts | 316° |
| 2026-04-21 21:30 | 41.67522 | 44.94415 | 1525 ft | 2 kts | 60° |
| 2026-04-21 21:30 | 41.67530 | 44.94435 | 1525 ft | 7 kts | 64° |
| 2026-04-21 21:31 | 41.67538 | 44.94459 | 1524 ft | 0 kts | 70° |
| 2026-04-21 21:31 | 41.67538 | 44.94460 | 1523 ft | 2 kts | 70° |
| 2026-04-21 21:32 | 41.67556 | 44.94534 | 1526 ft | 14 kts | 72° |
| 2026-04-21 21:32 | 41.67589 | 44.94668 | 1522 ft | 19 kts | 72° |
| 2026-04-21 21:32 | 41.67634 | 44.94859 | 1521 ft | 23 kts | 73° |
| 2026-04-21 21:32 | 41.67665 | 44.95005 | 1524 ft | 9 kts | 79° |
| 2026-04-21 21:33 | 41.67645 | 44.95069 | 1521 ft | 9 kts | 133° |
| 2026-04-21 21:33 | 41.67573 | 44.95170 | 1523 ft | 21 kts | 133° |
| 2026-04-21 21:33 | 41.67472 | 44.95323 | 1524 ft | 23 kts | 131° |
| 2026-04-21 21:33 | 41.67376 | 44.95469 | 1522 ft | 21 kts | 132° |
| 2026-04-21 21:34 | 41.67286 | 44.95596 | 1526 ft | 20 kts | 134° |
| 2026-04-21 21:34 | 41.67187 | 44.95733 | 1526 ft | 21 kts | 134° |
| 2026-04-21 21:34 | 41.67090 | 44.95869 | 1519 ft | 18 kts | 131° |
| 2026-04-21 21:34 | 41.67016 | 44.96004 | 1519 ft | 19 kts | 133° |
| 2026-04-21 21:35 | 41.66935 | 44.96127 | 1523 ft | 10 kts | 105° |
| 2026-04-21 21:35 | 41.66938 | 44.96190 | 1523 ft | 3 kts | 150° |
| 2026-04-21 21:35 | 41.66921 | 44.96206 | 1524 ft | 3 kts | 125° |
| 2026-04-21 21:35 | 41.66927 | 44.96231 | 1525 ft | 6 kts | 64° |
| 2026-04-21 21:36 | 41.66946 | 44.96260 | 1527 ft | 0 kts | 44° |